createdAt,value
2022-10-26T00:01:14.608Z,9.93
2022-10-26T00:03:44.866Z,10.60
2022-10-26T00:06:17.890Z,10.32
2022-10-26T00:08:46.076Z,10.58
2022-10-26T00:11:14.200Z,9.90
2022-10-26T00:13:42.794Z,9.85
2022-10-26T00:16:13.159Z,9.73
2022-10-26T00:18:41.428Z,10.72
2022-10-26T00:21:12.400Z,9.80
2022-10-26T00:23:40.440Z,10.13
2022-10-26T00:26:09.196Z,8.95
2022-10-26T00:28:36.769Z,10.82
2022-10-26T00:31:07.987Z,10.00
2022-10-26T00:33:37.092Z,9.53
2022-10-26T00:36:10.233Z,10.13
2022-10-26T00:38:38.625Z,9.20
2022-10-26T00:41:06.367Z,9.88
2022-10-26T00:43:36.081Z,9.80
2022-10-26T00:46:06.934Z,9.13
2022-10-26T00:48:41.285Z,8.88
2022-10-26T00:51:33.754Z,8.85
2022-10-26T00:54:05.211Z,8.75
2022-10-26T00:56:34.789Z,10.13
2022-10-26T00:59:05.519Z,10.20
2022-10-26T01:01:36.153Z,10.55
2022-10-26T01:04:04.285Z,10.75
2022-10-26T01:06:36.484Z,10.80
2022-10-26T01:09:05.564Z,9.88
2022-10-26T01:11:33.438Z,9.68
2022-10-26T01:14:03.855Z,10.20
2022-10-26T01:16:38.340Z,10.05
2022-10-26T01:19:14.783Z,11.15
2022-10-26T01:21:54.776Z,10.75
2022-10-26T01:24:44.123Z,10.35
2022-10-26T01:27:31.951Z,10.80
2022-10-26T01:30:19.901Z,11.55
2022-10-26T01:33:24.674Z,10.38
2022-10-26T01:36:02.658Z,10.88
2022-10-26T01:38:37.155Z,10.80
2022-10-26T01:41:10.909Z,11.53
2022-10-26T01:43:42.225Z,11.33
2022-10-26T01:46:11.883Z,11.38
2022-10-26T01:48:41.857Z,12.43
2022-10-26T01:51:11.407Z,11.68
2022-10-26T01:53:46.784Z,11.45
2022-10-26T01:56:23.453Z,11.45
2022-10-26T01:59:00.920Z,11.40
2022-10-26T02:01:52.139Z,11.83
2022-10-26T02:04:43.273Z,10.95
2022-10-26T02:07:31.541Z,11.65
2022-10-26T02:10:24.897Z,10.75
2022-10-26T02:13:01.914Z,10.38
2022-10-26T02:15:48.541Z,10.78
2022-10-26T02:18:27.023Z,9.55
2022-10-26T02:20:57.452Z,10.00
2022-10-26T02:23:27.873Z,10.18
2022-10-26T02:25:59.137Z,10.98
2022-10-26T02:28:33.249Z,10.08
2022-10-26T02:31:03.140Z,10.93
2022-10-26T02:33:34.063Z,10.10
2022-10-26T02:36:05.374Z,10.90
2022-10-26T02:38:34.968Z,11.10
2022-10-26T02:41:04.226Z,11.95
2022-10-26T02:43:37.593Z,11.05
2022-10-26T02:46:08.931Z,11.20
2022-10-26T02:48:36.705Z,11.20
2022-10-26T02:51:10.911Z,11.18
2022-10-26T02:53:42.422Z,12.10
2022-10-26T02:56:28.738Z,11.15
2022-10-26T02:59:00.240Z,11.85
2022-10-26T03:01:29.080Z,11.48
2022-10-26T03:04:00.546Z,11.48
2022-10-26T03:06:28.349Z,11.68
2022-10-26T03:08:55.616Z,10.55
2022-10-26T03:11:23.586Z,12.07
2022-10-26T03:13:51.147Z,11.28
2022-10-26T03:16:19.227Z,12.07
2022-10-26T03:18:46.715Z,11.35
2022-10-26T03:21:14.321Z,11.38
2022-10-26T03:23:42.245Z,12.47
2022-10-26T03:26:09.775Z,11.35
2022-10-26T03:28:38.001Z,11.70
2022-10-26T03:31:09.117Z,10.28
2022-10-26T03:36:05.230Z,10.28
2022-10-26T03:38:32.932Z,9.68
2022-10-26T03:41:01.023Z,10.35
2022-10-26T03:43:29.122Z,9.83
2022-10-26T03:45:56.889Z,9.48
2022-10-26T03:48:24.763Z,10.13
2022-10-26T03:50:52.300Z,9.25
2022-10-26T03:53:21.126Z,10.48
2022-10-26T03:55:48.944Z,9.13
2022-10-26T03:58:17.872Z,9.78
2022-10-26T04:00:45.637Z,9.75
2022-10-26T04:03:13.145Z,10.10
2022-10-26T04:05:40.919Z,9.95
2022-10-26T04:08:09.209Z,10.45
2022-10-26T04:10:37.392Z,10.30
2022-10-26T04:13:05.825Z,10.72
2022-10-26T04:15:33.207Z,10.10
2022-10-26T04:18:02.490Z,11.43
2022-10-26T04:20:31.768Z,10.23
2022-10-26T04:23:01.481Z,11.10
2022-10-26T04:25:32.927Z,10.80
2022-10-26T04:28:01.209Z,11.03
2022-10-26T04:30:29.109Z,10.90
2022-10-26T04:32:56.862Z,10.30
2022-10-26T04:35:24.948Z,9.90
2022-10-26T04:37:54.430Z,10.75
2022-10-26T04:40:22.196Z,10.35
2022-10-26T04:42:59.038Z,10.75
2022-10-26T04:45:28.723Z,9.90
2022-10-26T04:48:00.529Z,11.25
2022-10-26T04:50:28.540Z,10.63
2022-10-26T04:52:56.282Z,10.68
2022-10-26T04:55:24.364Z,9.40
2022-10-26T04:57:55.957Z,9.73
2022-10-26T05:00:22.949Z,10.68
2022-10-26T05:02:51.156Z,10.70
2022-10-26T05:05:19.801Z,11.20
2022-10-26T05:07:51.976Z,11.05
2022-10-26T05:10:19.708Z,11.18
2022-10-26T05:12:53.940Z,11.08
2022-10-26T05:15:21.434Z,11.75
2022-10-26T05:17:57.779Z,11.83
2022-10-26T05:20:28.631Z,11.18
2022-10-26T05:22:56.980Z,11.03
2022-10-26T05:25:25.278Z,10.88
2022-10-26T05:27:53.284Z,10.63
2022-10-26T05:30:21.339Z,10.03
2022-10-26T05:32:54.767Z,10.48
2022-10-26T05:35:23.462Z,12.60
2022-10-26T05:37:50.901Z,11.40
2022-10-26T05:40:19.105Z,10.68
2022-10-26T05:42:47.610Z,11.50
2022-10-26T05:45:16.024Z,12.03
2022-10-26T05:47:44.897Z,11.12
2022-10-26T05:50:16.243Z,10.95
2022-10-26T05:52:47.683Z,11.88
2022-10-26T05:55:18.086Z,12.85
2022-10-26T05:57:47.673Z,11.65
2022-10-26T06:00:18.937Z,11.73
2022-10-26T06:02:50.603Z,11.18
2022-10-26T06:05:21.983Z,11.75
2022-10-26T06:07:51.184Z,11.38
2022-10-26T06:10:20.627Z,11.12
2022-10-26T06:12:49.411Z,12.35
2022-10-26T06:15:19.973Z,11.63
2022-10-26T06:17:54.071Z,11.00
2022-10-26T06:20:50.808Z,11.55
2022-10-26T06:23:24.887Z,10.93
2022-10-26T06:27:32.961Z,11.10
2022-10-26T06:29:39.958Z,10.28
2022-10-26T06:32:09.819Z,11.45
2022-10-26T06:34:40.927Z,10.28
2022-10-26T06:37:09.181Z,10.53
2022-10-26T06:39:41.002Z,10.10
2022-10-26T06:42:11.902Z,10.03
2022-10-26T06:44:41.107Z,11.05
2022-10-26T06:47:36.600Z,11.18
2022-10-26T06:50:32.175Z,11.45
2022-10-26T06:53:09.516Z,9.73
2022-10-26T06:55:44.316Z,11.22
2022-10-26T06:58:18.353Z,11.63
2022-10-26T07:00:48.528Z,11.70
2022-10-26T07:03:17.537Z,13.62
2022-10-26T07:05:46.373Z,11.15
2022-10-26T07:08:15.165Z,10.85
2022-10-26T07:10:43.658Z,10.20
2022-10-26T07:13:12.852Z,11.53
2022-10-26T07:15:41.156Z,11.03
2022-10-26T07:18:09.821Z,11.83
2022-10-26T07:20:39.513Z,11.12
2022-10-26T07:23:08.623Z,11.18
2022-10-26T07:25:40.441Z,12.85
2022-10-26T07:28:10.622Z,11.28
2022-10-26T07:30:39.308Z,11.63
2022-10-26T07:33:12.268Z,15.23
2022-10-26T07:35:41.546Z,14.23
2022-10-26T07:38:09.728Z,12.40
2022-10-26T07:40:38.207Z,12.45
2022-10-26T07:43:06.366Z,11.12
2022-10-26T07:45:34.558Z,11.80
2022-10-26T07:48:02.088Z,11.03
2022-10-26T07:50:30.104Z,11.10
2022-10-26T07:53:00.562Z,11.85
2022-10-26T07:55:28.345Z,12.60
2022-10-26T07:57:57.566Z,12.20
2022-10-26T08:00:26.237Z,11.95
2022-10-26T08:02:54.836Z,13.10
2022-10-26T08:05:22.312Z,12.45
2022-10-26T08:07:49.840Z,12.25
2022-10-26T08:10:18.599Z,12.78
2022-10-26T08:12:46.071Z,13.22
2022-10-26T08:15:14.175Z,13.93
2022-10-26T08:17:41.755Z,14.28
2022-10-26T08:20:10.060Z,13.78
2022-10-26T08:22:37.753Z,13.80
2022-10-26T08:25:06.873Z,13.58
2022-10-26T08:27:34.233Z,13.50
2022-10-26T08:30:04.724Z,16.05
2022-10-26T08:32:34.507Z,15.53
2022-10-26T08:35:02.471Z,16.45
2022-10-26T08:37:31.108Z,16.60
2022-10-26T08:40:02.226Z,14.65
2022-10-26T08:42:38.587Z,14.05
2022-10-26T08:45:09.966Z,13.80
2022-10-26T08:47:43.873Z,14.07
2022-10-26T08:50:26.845Z,13.68
2022-10-26T08:52:59.705Z,14.10
2022-10-26T08:55:31.153Z,15.00
2022-10-26T08:58:04.919Z,14.90
2022-10-26T09:00:32.736Z,14.73
2022-10-26T09:03:01.009Z,15.05
2022-10-26T09:05:34.784Z,14.58
2022-10-26T09:08:38.498Z,13.95
2022-10-26T09:11:20.953Z,15.43
2022-10-26T09:14:23.959Z,14.25
2022-10-26T09:16:55.650Z,13.08
2022-10-26T09:19:30.027Z,14.40
2022-10-26T09:22:17.976Z,14.83
2022-10-26T09:24:52.480Z,14.50
2022-10-26T09:27:32.134Z,14.43
2022-10-26T09:30:07.920Z,14.60
2022-10-26T09:32:40.249Z,14.07
2022-10-26T09:37:59.105Z,14.13
2022-10-26T09:40:34.652Z,12.60
2022-10-26T09:43:06.113Z,14.60
2022-10-26T09:45:40.314Z,14.63
2022-10-26T09:48:17.622Z,13.95
2022-10-26T09:50:48.796Z,14.18
2022-10-26T09:53:16.759Z,14.35
2022-10-26T09:55:47.791Z,13.78
2022-10-26T09:58:18.889Z,14.95
2022-10-26T10:00:47.213Z,15.98
2022-10-26T10:03:26.660Z,13.20
2022-10-26T10:05:54.970Z,13.75
2022-10-26T10:08:25.222Z,14.53
2022-10-26T10:10:58.960Z,13.15
2022-10-26T10:13:32.065Z,14.87
2022-10-26T10:16:09.012Z,13.53
2022-10-26T10:18:38.538Z,14.45
2022-10-26T10:21:07.668Z,13.70
2022-10-26T10:23:37.981Z,13.80
2022-10-26T10:26:13.092Z,14.15
2022-10-26T10:28:42.780Z,13.78
2022-10-26T10:31:22.684Z,13.18
2022-10-26T10:33:51.255Z,13.88
2022-10-26T10:36:21.286Z,13.78
2022-10-26T10:38:50.483Z,14.70
2022-10-26T10:41:35.411Z,14.40
2022-10-26T10:46:37.881Z,15.93
2022-10-26T10:49:17.912Z,15.80
2022-10-26T10:51:46.769Z,16.15
2022-10-26T10:54:26.849Z,16.07
2022-10-26T10:56:57.893Z,19.42
2022-10-26T10:59:36.078Z,21.50
2022-10-26T11:02:33.546Z,17.48
2022-10-26T11:05:36.115Z,16.30
2022-10-26T11:11:21.620Z,15.10
2022-10-26T11:13:55.728Z,15.18
2022-10-26T11:16:32.541Z,16.45
2022-10-26T11:19:09.781Z,15.40
2022-10-26T11:21:40.383Z,16.07
2022-10-26T11:24:18.507Z,15.40
2022-10-26T11:26:56.853Z,14.28
2022-10-26T11:29:39.359Z,15.40
2022-10-26T11:32:23.792Z,14.45
2022-10-26T11:34:58.031Z,15.28
2022-10-26T11:40:15.519Z,16.32
2022-10-26T11:42:47.255Z,13.72
2022-10-26T11:45:30.653Z,14.58
2022-10-26T11:48:18.004Z,13.43
2022-10-26T11:50:50.028Z,12.75
2022-10-26T11:53:20.436Z,13.15
2022-10-26T11:55:55.728Z,11.57
2022-10-26T11:58:26.335Z,12.65
2022-10-26T12:00:57.839Z,13.00
2022-10-26T12:03:31.806Z,11.85
2022-10-26T12:05:59.580Z,12.30
2022-10-26T12:08:48.307Z,10.63
2022-10-26T12:11:34.985Z,11.65
2022-10-26T12:14:12.109Z,11.05
2022-10-26T12:16:54.103Z,11.70
2022-10-26T12:19:35.119Z,13.05
2022-10-26T12:22:03.836Z,13.93
2022-10-26T12:24:38.061Z,13.05
2022-10-26T12:27:11.123Z,14.15
2022-10-26T12:29:49.741Z,14.00
2022-10-26T12:32:33.141Z,15.08
2022-10-26T12:35:03.022Z,13.55
2022-10-26T12:37:37.743Z,13.32
2022-10-26T12:40:25.417Z,14.28
2022-10-26T12:42:53.308Z,14.23
2022-10-26T12:48:38.910Z,16.48
2022-10-26T12:50:54.626Z,15.45
2022-10-26T12:53:22.851Z,16.07
2022-10-26T12:56:03.098Z,15.70
2022-10-26T12:58:49.151Z,15.75
2022-10-26T13:01:35.698Z,16.50
2022-10-26T13:04:13.256Z,17.77
2022-10-26T13:07:02.789Z,15.23
2022-10-26T13:09:34.209Z,16.05
2022-10-26T13:12:03.876Z,15.70
2022-10-26T13:14:42.623Z,15.70
2022-10-26T13:17:13.887Z,15.35
2022-10-26T13:19:47.427Z,14.05
2022-10-26T13:22:18.541Z,14.50
2022-10-26T13:24:55.451Z,14.05
2022-10-26T13:27:25.862Z,13.70
2022-10-26T13:30:12.244Z,14.43
2022-10-26T13:32:42.713Z,11.88
2022-10-26T13:35:14.821Z,14.33
2022-10-26T13:37:47.242Z,14.65
2022-10-26T13:40:21.411Z,13.68
2022-10-26T13:42:52.896Z,14.00
2022-10-26T13:45:32.337Z,13.62
2022-10-26T13:48:03.993Z,12.82
2022-10-26T13:50:36.082Z,13.65
2022-10-26T13:53:19.718Z,14.53
2022-10-26T13:55:54.101Z,14.40
2022-10-26T13:58:42.121Z,15.23
2022-10-26T14:01:16.358Z,14.07
2022-10-26T14:03:44.355Z,14.23
2022-10-26T14:06:21.807Z,13.72
2022-10-26T14:08:50.900Z,15.20
2022-10-26T14:11:24.988Z,15.98
2022-10-26T14:13:52.852Z,14.40
2022-10-26T14:16:22.175Z,16.42
2022-10-26T14:18:49.742Z,14.85
2022-10-26T14:21:20.235Z,14.83
2022-10-26T14:23:58.099Z,16.55
2022-10-26T14:26:29.173Z,15.00
2022-10-26T14:29:01.553Z,14.53
2022-10-26T14:31:31.435Z,15.83
2022-10-26T14:34:00.621Z,15.48
2022-10-26T14:36:41.443Z,15.15
2022-10-26T14:39:18.717Z,13.60
2022-10-26T14:41:47.057Z,16.35
2022-10-26T14:44:17.622Z,15.90
2022-10-26T14:46:46.785Z,14.85
2022-10-26T14:49:23.870Z,14.58
2022-10-26T14:52:06.091Z,15.08
2022-10-26T14:54:34.882Z,16.73
2022-10-26T14:57:04.258Z,14.73
2022-10-26T14:59:32.550Z,13.90
2022-10-26T15:02:13.465Z,15.25
2022-10-26T15:04:44.513Z,15.25
2022-10-26T15:07:19.295Z,15.65
2022-10-26T15:09:51.473Z,14.85
2022-10-26T15:12:34.778Z,15.55
2022-10-26T15:15:18.781Z,15.45
2022-10-26T15:18:00.299Z,13.65
2022-10-26T15:20:29.857Z,17.10
2022-10-26T15:23:01.115Z,15.60
2022-10-26T15:25:31.905Z,16.05
2022-10-26T15:28:32.988Z,16.32
2022-10-26T15:31:07.564Z,15.00
2022-10-26T15:33:45.317Z,15.75
2022-10-26T15:36:16.517Z,14.98
2022-10-26T15:38:45.007Z,16.52
2022-10-26T15:41:33.824Z,15.70
2022-10-26T15:44:06.489Z,14.13
2022-10-26T15:46:37.328Z,15.88
2022-10-26T15:49:07.498Z,16.27
2022-10-26T15:51:35.590Z,14.10
2022-10-26T15:54:04.875Z,14.33
2022-10-26T15:56:32.745Z,16.82
2022-10-26T15:59:00.125Z,14.93
2022-10-26T16:01:29.514Z,13.45
2022-10-26T16:03:57.076Z,13.88
2022-10-26T16:06:31.269Z,15.08
2022-10-26T16:09:01.790Z,13.65
2022-10-26T16:11:29.799Z,14.05
2022-10-26T16:14:03.588Z,14.30
2022-10-26T16:16:30.072Z,14.58
2022-10-26T16:19:18.565Z,15.60
2022-10-26T16:21:27.736Z,15.90
2022-10-26T16:23:57.421Z,18.32
2022-10-26T16:26:25.466Z,19.00
2022-10-26T16:28:52.853Z,16.27
2022-10-26T16:31:21.158Z,16.40
2022-10-26T16:33:48.729Z,21.82
2022-10-26T16:36:17.226Z,19.05
2022-10-26T16:38:45.082Z,19.12
2022-10-26T16:41:14.937Z,19.35
2022-10-26T16:43:45.331Z,17.35
2022-10-26T16:46:17.012Z,17.85
2022-10-26T16:48:46.522Z,17.42
2022-10-26T16:51:16.814Z,18.10
2022-10-26T16:53:50.860Z,15.95
2022-10-26T16:56:22.572Z,17.85
2022-10-26T16:58:50.657Z,18.67
2022-10-26T17:01:21.687Z,18.27
2022-10-26T17:03:51.060Z,18.55
2022-10-26T17:06:18.792Z,17.27
2022-10-26T17:08:46.974Z,17.77
2022-10-26T17:11:17.410Z,18.70
2022-10-26T17:13:45.818Z,18.40
2022-10-26T17:16:19.269Z,18.15
2022-10-26T17:18:47.970Z,18.52
2022-10-26T17:21:17.372Z,19.40
2022-10-26T17:23:45.470Z,18.77
2022-10-26T17:26:14.804Z,19.70
2022-10-26T17:28:42.268Z,18.98
2022-10-26T17:31:15.916Z,19.40
2022-10-26T17:33:44.802Z,19.60
2022-10-26T17:36:14.261Z,19.80
2022-10-26T17:38:42.728Z,19.00
2022-10-26T17:41:14.507Z,19.12
2022-10-26T17:43:44.047Z,20.32
2022-10-26T17:46:14.397Z,19.60
2022-10-26T17:48:55.828Z,20.70
2022-10-26T17:51:24.600Z,18.77
2022-10-26T17:53:53.212Z,19.87
2022-10-26T17:56:23.184Z,20.17
2022-10-26T17:58:53.552Z,23.45
2022-10-26T18:01:21.403Z,22.67
2022-10-26T18:03:49.302Z,22.58
2022-10-26T18:06:17.748Z,21.93
2022-10-26T18:08:45.852Z,21.12
2022-10-26T18:11:16.068Z,20.55
2022-10-26T18:13:44.125Z,21.15
2022-10-26T18:16:14.343Z,22.37
2022-10-26T18:18:44.670Z,22.13
2022-10-26T18:21:13.888Z,21.40
2022-10-26T18:23:41.825Z,20.75
2022-10-26T18:26:13.156Z,20.72
2022-10-26T18:28:41.754Z,20.72
2022-10-26T18:31:12.063Z,20.60
2022-10-26T18:33:39.949Z,20.35
2022-10-26T18:36:10.300Z,22.07
2022-10-26T18:38:40.521Z,19.37
2022-10-26T18:41:10.179Z,21.75
2022-10-26T18:43:45.235Z,20.17
2022-10-26T18:46:18.994Z,21.65
2022-10-26T18:48:45.409Z,19.48
2022-10-26T18:51:15.767Z,19.95
2022-10-26T18:53:46.249Z,19.35
2022-10-26T18:56:17.433Z,19.57
2022-10-26T18:58:49.167Z,20.65
2022-10-26T19:01:23.610Z,19.27
2022-10-26T19:03:59.964Z,18.70
2022-10-26T19:06:31.180Z,18.02
2022-10-26T19:08:59.334Z,18.70
2022-10-26T19:11:29.122Z,18.30
2022-10-26T19:13:57.524Z,18.17
2022-10-26T19:16:44.758Z,18.73
2022-10-26T19:18:58.050Z,18.50
2022-10-26T19:21:26.787Z,18.00
2022-10-26T19:23:56.571Z,20.50
2022-10-26T19:26:30.656Z,21.33
2022-10-26T19:28:59.708Z,21.62
2022-10-26T19:31:28.547Z,19.02
2022-10-26T19:33:57.549Z,18.27
2022-10-26T19:36:25.817Z,18.30
2022-10-26T19:38:54.176Z,19.48
2022-10-26T19:41:23.543Z,17.30
2022-10-26T19:43:51.568Z,17.37
2022-10-26T19:46:21.457Z,18.73
2022-10-26T19:48:52.029Z,18.73
2022-10-26T19:51:20.125Z,17.30
2022-10-26T19:53:47.555Z,17.70
2022-10-26T19:56:16.947Z,16.80
2022-10-26T19:58:45.456Z,17.10
2022-10-26T20:01:23.403Z,16.75
2022-10-26T20:03:51.551Z,17.45
2022-10-26T20:06:18.980Z,17.80
2022-10-26T20:08:48.735Z,17.15
2022-10-26T20:11:17.928Z,17.67
2022-10-26T20:13:46.907Z,17.52
2022-10-26T20:16:17.942Z,18.17
2022-10-26T20:18:48.085Z,17.90
2022-10-26T20:21:16.469Z,17.23
2022-10-26T20:23:44.900Z,18.67
2022-10-26T20:26:18.907Z,17.82
2022-10-26T20:28:46.069Z,17.45
2022-10-26T20:31:13.652Z,17.73
2022-10-26T20:33:41.625Z,23.05
2022-10-26T20:36:09.579Z,21.37
2022-10-26T20:38:38.908Z,19.55
2022-10-26T20:41:10.301Z,18.40
2022-10-26T20:43:39.627Z,18.42
2022-10-26T20:46:10.706Z,18.52
2022-10-26T20:48:39.216Z,18.75
2022-10-26T20:51:10.286Z,19.62
2022-10-26T20:53:53.813Z,18.35
2022-10-26T20:56:25.593Z,19.65
2022-10-26T20:58:55.971Z,22.93
2022-10-26T21:01:30.003Z,21.97
2022-10-26T21:04:00.226Z,21.60
2022-10-26T21:06:28.908Z,21.62
2022-10-26T21:08:57.829Z,21.52
2022-10-26T21:11:26.284Z,23.32
2022-10-26T21:13:54.690Z,23.73
2022-10-26T21:18:50.244Z,21.70
2022-10-26T21:21:17.751Z,22.58
2022-10-26T21:23:46.188Z,21.52
2022-10-26T21:26:13.891Z,21.70
2022-10-26T21:28:46.271Z,21.85
2022-10-26T21:31:15.886Z,21.10
2022-10-26T21:33:43.769Z,20.70
2022-10-26T21:36:12.710Z,21.10
2022-10-26T21:38:43.263Z,20.68
2022-10-26T21:41:13.730Z,22.25
2022-10-26T21:43:43.453Z,21.57
2022-10-26T21:46:11.345Z,21.45
2022-10-26T21:48:41.162Z,19.90
2022-10-26T21:51:15.315Z,20.30
2022-10-26T21:53:43.065Z,19.80
2022-10-26T21:56:16.905Z,20.70
2022-10-26T21:58:45.246Z,21.53
2022-10-26T22:01:15.594Z,19.85
2022-10-26T22:03:44.235Z,21.40
2022-10-26T22:06:13.901Z,21.00
2022-10-26T22:08:41.900Z,20.32
2022-10-26T22:11:23.162Z,21.25
2022-10-26T22:13:51.929Z,20.97
2022-10-26T22:16:22.687Z,20.65
2022-10-26T22:18:51.960Z,20.45
2022-10-26T22:21:21.331Z,20.25
2022-10-26T22:23:50.084Z,20.60
2022-10-26T22:26:23.092Z,21.75
2022-10-26T22:28:53.650Z,21.55
2022-10-26T22:31:27.543Z,20.02
2022-10-26T22:34:00.866Z,21.87
2022-10-26T22:36:29.233Z,20.72
2022-10-26T22:38:56.612Z,22.10
2022-10-26T22:41:25.085Z,20.97
2022-10-26T22:43:52.539Z,20.02
2022-10-26T22:46:25.777Z,20.52
2022-10-26T22:49:03.915Z,20.75
2022-10-26T22:51:34.910Z,20.00
2022-10-26T22:54:04.049Z,21.48
2022-10-26T22:56:33.306Z,20.15
2022-10-26T22:59:00.989Z,20.80
2022-10-26T23:01:31.805Z,20.75
2022-10-26T23:04:00.272Z,21.85
2022-10-26T23:06:29.345Z,19.87
2022-10-26T23:08:57.443Z,21.77
2022-10-26T23:11:27.040Z,21.95
2022-10-26T23:13:56.857Z,20.57
2022-10-26T23:16:25.441Z,21.23
2022-10-26T23:18:53.620Z,20.55
2022-10-26T23:21:22.750Z,21.23
2022-10-26T23:23:50.579Z,20.05
2022-10-26T23:26:21.063Z,19.40
2022-10-26T23:28:49.485Z,20.70
2022-10-26T23:31:22.682Z,21.50
2022-10-26T23:33:51.408Z,22.50
2022-10-26T23:36:19.888Z,21.25
2022-10-26T23:38:48.432Z,20.65
2022-10-26T23:41:16.022Z,22.05
2022-10-26T23:43:43.668Z,20.85
2022-10-26T23:46:11.630Z,19.73
2022-10-26T23:48:39.234Z,20.90
2022-10-26T23:51:06.796Z,20.25
2022-10-26T23:53:34.560Z,21.62
2022-10-26T23:56:02.330Z,22.05
2022-10-26T23:58:30.095Z,20.17
